sensor_id;sensor_type;location;lat;lon;timestamp;pressure;altitude;pressure_sealevel;temperature;humidity
11971;BME280;6045;42.682;23.294;2023-05-09T00:02:20;94927.09;;;15.16;75.93
11971;BME280;6045;42.682;23.294;2023-05-09T00:04:47;94926.00;;;15.12;75.57
11971;BME280;6045;42.682;23.294;2023-05-09T00:07:14;94917.09;;;15.11;75.50
11971;BME280;6045;42.682;23.294;2023-05-09T00:09:43;94921.09;;;15.08;76.06
11971;BME280;6045;42.682;23.294;2023-05-09T00:12:09;94922.03;;;14.97;76.25
11971;BME280;6045;42.682;23.294;2023-05-09T00:14:36;94913.75;;;15.04;75.51
11971;BME280;6045;42.682;23.294;2023-05-09T00:17:03;94922.47;;;15.11;76.32
11971;BME280;6045;42.682;23.294;2023-05-09T00:19:30;94916.88;;;15.18;76.52
11971;BME280;6045;42.682;23.294;2023-05-09T00:21:57;94924.78;;;15.24;76.29
11971;BME280;6045;42.682;23.294;2023-05-09T00:24:24;94919.16;;;15.26;76.70
11971;BME280;6045;42.682;23.294;2023-05-09T00:26:52;94912.94;;;15.25;76.93
11971;BME280;6045;42.682;23.294;2023-05-09T00:29:19;94911.50;;;14.96;77.23
11971;BME280;6045;42.682;23.294;2023-05-09T00:31:45;94905.88;;;14.97;77.99
11971;BME280;6045;42.682;23.294;2023-05-09T00:34:12;94914.75;;;14.98;77.49
11971;BME280;6045;42.682;23.294;2023-05-09T00:36:39;94911.34;;;15.02;77.61
11971;BME280;6045;42.682;23.294;2023-05-09T00:39:07;94911.38;;;15.07;76.78
11971;BME280;6045;42.682;23.294;2023-05-09T00:41:34;94903.81;;;15.04;76.42
11971;BME280;6045;42.682;23.294;2023-05-09T00:44:02;94912.13;;;15.03;76.17
11971;BME280;6045;42.682;23.294;2023-05-09T00:46:28;94910.50;;;15.02;76.66
11971;BME280;6045;42.682;23.294;2023-05-09T00:48:55;94905.44;;;15.05;76.45
11971;BME280;6045;42.682;23.294;2023-05-09T00:51:22;94903.81;;;15.04;76.75
11971;BME280;6045;42.682;23.294;2023-05-09T00:53:50;94898.66;;;15.03;76.16
11971;BME280;6045;42.682;23.294;2023-05-09T00:56:17;94901.69;;;15.06;75.77
11971;BME280;6045;42.682;23.294;2023-05-09T00:58:44;94910.25;;;15.03;75.86
11971;BME280;6045;42.682;23.294;2023-05-09T01:01:12;94905.47;;;14.89;75.60
11971;BME280;6045;42.682;23.294;2023-05-09T01:03:40;94902.09;;;14.77;76.17
11971;BME280;6045;42.682;23.294;2023-05-09T01:06:13;94898.09;;;14.79;76.11
11971;BME280;6045;42.682;23.294;2023-05-09T01:08:46;94900.13;;;14.72;76.92
11971;BME280;6045;42.682;23.294;2023-05-09T01:11:21;94893.63;;;14.68;76.60
11971;BME280;6045;42.682;23.294;2023-05-09T01:13:56;94902.44;;;14.64;77.01
11971;BME280;6045;42.682;23.294;2023-05-09T01:16:30;94902.31;;;14.54;77.31
11971;BME280;6045;42.682;23.294;2023-05-09T01:19:04;94901.25;;;14.55;76.95
11971;BME280;6045;42.682;23.294;2023-05-09T01:21:34;94907.94;;;14.35;77.24
11971;BME280;6045;42.682;23.294;2023-05-09T01:24:32;94900.44;;;14.21;78.30
11971;BME280;6045;42.682;23.294;2023-05-09T01:27:14;94896.78;;;14.10;78.59
11971;BME280;6045;42.682;23.294;2023-05-09T01:29:50;94901.91;;;14.12;78.50
11971;BME280;6045;42.682;23.294;2023-05-09T01:32:23;94908.00;;;14.07;78.75
11971;BME280;6045;42.682;23.294;2023-05-09T01:34:52;94907.19;;;14.07;79.14
11971;BME280;6045;42.682;23.294;2023-05-09T01:37:26;94907.38;;;14.17;78.74
11971;BME280;6045;42.682;23.294;2023-05-09T01:39:57;94903.28;;;14.14;79.08
11971;BME280;6045;42.682;23.294;2023-05-09T01:42:26;94904.19;;;14.20;78.74
11971;BME280;6045;42.682;23.294;2023-05-09T01:44:57;94909.81;;;14.35;78.17
11971;BME280;6045;42.682;23.294;2023-05-09T01:47:25;94908.34;;;14.44;78.29
11971;BME280;6045;42.682;23.294;2023-05-09T01:49:53;94909.59;;;14.36;79.53
11971;BME280;6045;42.682;23.294;2023-05-09T01:52:21;94911.28;;;14.43;78.61
11971;BME280;6045;42.682;23.294;2023-05-09T01:54:50;94914.53;;;14.28;78.04
11971;BME280;6045;42.682;23.294;2023-05-09T01:57:17;94909.59;;;14.36;78.12
11971;BME280;6045;42.682;23.294;2023-05-09T01:59:45;94920.75;;;14.45;77.59
11971;BME280;6045;42.682;23.294;2023-05-09T02:02:14;94913.88;;;14.54;77.68
11971;BME280;6045;42.682;23.294;2023-05-09T02:04:42;94915.75;;;14.54;76.96
11971;BME280;6045;42.682;23.294;2023-05-09T02:07:10;94908.41;;;14.49;76.94
11971;BME280;6045;42.682;23.294;2023-05-09T02:09:37;94914.22;;;14.58;76.55
11971;BME280;6045;42.682;23.294;2023-05-09T02:12:05;94912.88;;;14.60;76.83
11971;BME280;6045;42.682;23.294;2023-05-09T02:14:32;94916.31;;;14.56;76.91
11971;BME280;6045;42.682;23.294;2023-05-09T02:16:59;94912.25;;;14.53;77.72
11971;BME280;6045;42.682;23.294;2023-05-09T02:19:32;94903.59;;;14.51;76.89
11971;BME280;6045;42.682;23.294;2023-05-09T02:21:59;94909.63;;;14.58;76.35
11971;BME280;6045;42.682;23.294;2023-05-09T02:24:26;94905.25;;;14.52;77.27
11971;BME280;6045;42.682;23.294;2023-05-09T02:26:54;94909.81;;;14.35;77.33
11971;BME280;6045;42.682;23.294;2023-05-09T02:29:26;94914.44;;;14.23;77.87
11971;BME280;6045;42.682;23.294;2023-05-09T02:31:56;94908.84;;;14.24;78.24
11971;BME280;6045;42.682;23.294;2023-05-09T02:34:25;94913.25;;;14.30;77.79
11971;BME280;6045;42.682;23.294;2023-05-09T02:36:53;94909.16;;;14.28;77.68
11971;BME280;6045;42.682;23.294;2023-05-09T02:39:20;94912.78;;;14.33;77.46
11971;BME280;6045;42.682;23.294;2023-05-09T02:41:48;94907.78;;;14.42;77.05
11971;BME280;6045;42.682;23.294;2023-05-09T02:44:14;94912.75;;;14.50;77.42
11971;BME280;6045;42.682;23.294;2023-05-09T02:46:41;94906.16;;;14.58;77.99
11971;BME280;6045;42.682;23.294;2023-05-09T02:49:08;94910.06;;;14.50;78.01
11971;BME280;6045;42.682;23.294;2023-05-09T02:51:35;94901.84;;;14.40;78.53
11971;BME280;6045;42.682;23.294;2023-05-09T02:54:03;94903.88;;;14.33;78.54
11971;BME280;6045;42.682;23.294;2023-05-09T02:56:30;94914.97;;;14.36;78.45
11971;BME280;6045;42.682;23.294;2023-05-09T02:58:57;94907.22;;;14.40;78.73
11971;BME280;6045;42.682;23.294;2023-05-09T03:01:24;94905.16;;;14.47;78.44
11971;BME280;6045;42.682;23.294;2023-05-09T03:03:50;94915.09;;;14.47;78.62
11971;BME280;6045;42.682;23.294;2023-05-09T03:06:17;94914.63;;;14.50;78.49
11971;BME280;6045;42.682;23.294;2023-05-09T03:08:44;94909.28;;;14.71;84.73
11971;BME280;6045;42.682;23.294;2023-05-09T03:11:12;94914.38;;;14.89;87.82
11971;BME280;6045;42.682;23.294;2023-05-09T03:13:39;94918.19;;;14.93;87.64
11971;BME280;6045;42.682;23.294;2023-05-09T03:16:05;94914.06;;;15.07;87.18
11971;BME280;6045;42.682;23.294;2023-05-09T03:18:32;94921.38;;;15.12;85.30
11971;BME280;6045;42.682;23.294;2023-05-09T03:20:59;94930.91;;;15.20;83.75
11971;BME280;6045;42.682;23.294;2023-05-09T03:23:26;94936.16;;;15.31;81.58
11971;BME280;6045;42.682;23.294;2023-05-09T03:25:52;94945.13;;;15.37;81.40
11971;BME280;6045;42.682;23.294;2023-05-09T03:28:20;94951.41;;;15.42;81.06
11971;BME280;6045;42.682;23.294;2023-05-09T03:30:48;94949.03;;;15.46;80.13
11971;BME280;6045;42.682;23.294;2023-05-09T03:33:15;94950.97;;;15.50;79.11
11971;BME280;6045;42.682;23.294;2023-05-09T03:35:41;94939.78;;;15.58;78.22
11971;BME280;6045;42.682;23.294;2023-05-09T03:38:08;94956.38;;;15.50;77.39
11971;BME280;6045;42.682;23.294;2023-05-09T03:40:36;94943.47;;;15.31;77.91
11971;BME280;6045;42.682;23.294;2023-05-09T03:43:03;94954.78;;;15.33;78.47
11971;BME280;6045;42.682;23.294;2023-05-09T03:45:31;94960.25;;;15.38;78.21
11971;BME280;6045;42.682;23.294;2023-05-09T03:48:00;94954.28;;;15.36;77.81
11971;BME280;6045;42.682;23.294;2023-05-09T03:50:28;94960.22;;;15.16;77.16
11971;BME280;6045;42.682;23.294;2023-05-09T03:52:54;94964.94;;;15.26;77.72
11971;BME280;6045;42.682;23.294;2023-05-09T03:55:21;94966.44;;;15.17;77.31
11971;BME280;6045;42.682;23.294;2023-05-09T03:57:48;94956.34;;;15.29;77.69
11971;BME280;6045;42.682;23.294;2023-05-09T04:00:16;94968.63;;;15.20;77.88
11971;BME280;6045;42.682;23.294;2023-05-09T04:02:44;94965.84;;;15.15;81.63
11971;BME280;6045;42.682;23.294;2023-05-09T04:05:11;94964.94;;;15.26;83.78
11971;BME280;6045;42.682;23.294;2023-05-09T04:07:37;94965.56;;;15.76;89.68
11971;BME280;6045;42.682;23.294;2023-05-09T04:10:05;94963.03;;;15.91;78.74
11971;BME280;6045;42.682;23.294;2023-05-09T04:12:32;94960.78;;;15.83;75.36
11971;BME280;6045;42.682;23.294;2023-05-09T04:14:59;94961.09;;;15.87;75.79
11971;BME280;6045;42.682;23.294;2023-05-09T04:17:26;94957.03;;;15.84;75.06
11971;BME280;6045;42.682;23.294;2023-05-09T04:19:54;94966.00;;;15.68;76.22
11971;BME280;6045;42.682;23.294;2023-05-09T04:22:20;94962.72;;;15.61;76.01
11971;BME280;6045;42.682;23.294;2023-05-09T04:24:47;94966.38;;;15.77;79.36
11971;BME280;6045;42.682;23.294;2023-05-09T04:27:14;94964.91;;;15.91;78.12
11971;BME280;6045;42.682;23.294;2023-05-09T04:29:41;94965.22;;;15.94;76.62
11971;BME280;6045;42.682;23.294;2023-05-09T04:32:07;94966.78;;;15.90;76.09
11971;BME280;6045;42.682;23.294;2023-05-09T04:34:34;94968.00;;;16.04;75.20
11971;BME280;6045;42.682;23.294;2023-05-09T04:37:02;94966.84;;;15.95;72.61
11971;BME280;6045;42.682;23.294;2023-05-09T04:39:29;94962.00;;;15.97;72.93
11971;BME280;6045;42.682;23.294;2023-05-09T04:41:56;94973.09;;;16.01;73.54
11971;BME280;6045;42.682;23.294;2023-05-09T04:44:22;94976.78;;;15.68;73.01
11971;BME280;6045;42.682;23.294;2023-05-09T04:46:49;94971.50;;;15.35;74.11
11971;BME280;6045;42.682;23.294;2023-05-09T04:49:16;94970.69;;;15.34;74.53
11971;BME280;6045;42.682;23.294;2023-05-09T04:51:43;94975.16;;;15.45;75.46
11971;BME280;6045;42.682;23.294;2023-05-09T04:54:11;94974.91;;;15.68;78.01
11971;BME280;6045;42.682;23.294;2023-05-09T04:56:38;94968.81;;;16.05;79.16
11971;BME280;6045;42.682;23.294;2023-05-09T04:59:04;94974.75;;;16.33;78.28
11971;BME280;6045;42.682;23.294;2023-05-09T05:01:31;94971.28;;;16.65;75.08
11971;BME280;6045;42.682;23.294;2023-05-09T05:03:58;94971.91;;;16.82;75.49
11971;BME280;6045;42.682;23.294;2023-05-09T05:06:25;94972.59;;;16.99;74.66
11971;BME280;6045;42.682;23.294;2023-05-09T05:08:51;94968.63;;;17.12;72.33
11971;BME280;6045;42.682;23.294;2023-05-09T05:11:19;94970.28;;;17.23;70.97
11971;BME280;6045;42.682;23.294;2023-05-09T05:13:46;94968.44;;;17.28;70.89
11971;BME280;6045;42.682;23.294;2023-05-09T05:16:13;94955.75;;;17.34;69.52
11971;BME280;6045;42.682;23.294;2023-05-09T05:18:39;94965.75;;;17.38;69.68
11971;BME280;6045;42.682;23.294;2023-05-09T05:21:06;94965.78;;;17.43;68.46
11971;BME280;6045;42.682;23.294;2023-05-09T05:23:33;94966.31;;;17.35;67.40
11971;BME280;6045;42.682;23.294;2023-05-09T05:26:00;94978.69;;;17.26;68.11
11971;BME280;6045;42.682;23.294;2023-05-09T05:28:28;94963.31;;;17.32;66.54
11971;BME280;6045;42.682;23.294;2023-05-09T05:30:55;94975.97;;;17.21;66.95
11971;BME280;6045;42.682;23.294;2023-05-09T05:33:22;94975.19;;;17.26;67.61
11971;BME280;6045;42.682;23.294;2023-05-09T05:35:48;94973.88;;;17.38;65.59
11971;BME280;6045;42.682;23.294;2023-05-09T05:38:15;94982.00;;;17.43;64.80
11971;BME280;6045;42.682;23.294;2023-05-09T05:40:42;94972.91;;;17.07;66.20
11971;BME280;6045;42.682;23.294;2023-05-09T05:43:09;94978.69;;;16.84;66.45
11971;BME280;6045;42.682;23.294;2023-05-09T05:45:37;94991.78;;;16.66;67.43
11971;BME280;6045;42.682;23.294;2023-05-09T05:48:04;94982.41;;;16.47;66.50
11971;BME280;6045;42.682;23.294;2023-05-09T05:50:30;94980.94;;;16.29;67.34
11971;BME280;6045;42.682;23.294;2023-05-09T05:52:57;94987.16;;;16.29;67.52
11971;BME280;6045;42.682;23.294;2023-05-09T05:55:24;94981.94;;;16.23;67.41
11971;BME280;6045;42.682;23.294;2023-05-09T05:57:51;94982.41;;;16.41;67.51
11971;BME280;6045;42.682;23.294;2023-05-09T06:00:18;94991.72;;;16.56;67.84
11971;BME280;6045;42.682;23.294;2023-05-09T06:02:46;94985.19;;;16.52;68.02
11971;BME280;6045;42.682;23.294;2023-05-09T06:05:13;94986.34;;;16.61;68.39
11971;BME280;6045;42.682;23.294;2023-05-09T06:07:39;94982.13;;;16.70;67.73
11971;BME280;6045;42.682;23.294;2023-05-09T06:10:09;94980.38;;;16.90;67.48
11971;BME280;6045;42.682;23.294;2023-05-09T06:12:35;94986.75;;;16.74;67.10
11971;BME280;6045;42.682;23.294;2023-05-09T06:15:03;94984.81;;;16.75;66.69
11971;BME280;6045;42.682;23.294;2023-05-09T06:17:30;94976.88;;;16.95;67.10
11971;BME280;6045;42.682;23.294;2023-05-09T06:19:58;94974.72;;;16.97;64.67
11971;BME280;6045;42.682;23.294;2023-05-09T06:22:25;94970.22;;;16.71;64.84
11971;BME280;6045;42.682;23.294;2023-05-09T06:24:52;94977.09;;;16.83;65.48
11971;BME280;6045;42.682;23.294;2023-05-09T06:27:18;94982.00;;;16.96;64.92
11971;BME280;6045;42.682;23.294;2023-05-09T06:29:45;94983.22;;;16.74;64.01
11971;BME280;6045;42.682;23.294;2023-05-09T06:32:12;94977.47;;;16.60;63.89
11971;BME280;6045;42.682;23.294;2023-05-09T06:34:39;94993.66;;;16.60;65.73
11971;BME280;6045;42.682;23.294;2023-05-09T06:37:07;94990.69;;;16.35;63.73
11971;BME280;6045;42.682;23.294;2023-05-09T06:39:34;94986.59;;;16.32;64.43
11971;BME280;6045;42.682;23.294;2023-05-09T06:42:01;94980.31;;;15.95;65.64
11971;BME280;6045;42.682;23.294;2023-05-09T06:44:28;94983.78;;;15.91;66.19
11971;BME280;6045;42.682;23.294;2023-05-09T06:46:54;94981.41;;;15.94;66.56
11971;BME280;6045;42.682;23.294;2023-05-09T06:49:21;94992.09;;;15.62;66.49
11971;BME280;6045;42.682;23.294;2023-05-09T06:51:48;94986.97;;;15.61;67.48
11971;BME280;6045;42.682;23.294;2023-05-09T06:54:16;94978.97;;;15.71;67.23
11971;BME280;6045;42.682;23.294;2023-05-09T06:56:43;94988.88;;;15.87;67.41
11971;BME280;6045;42.682;23.294;2023-05-09T06:59:09;94987.63;;;15.73;67.04
11971;BME280;6045;42.682;23.294;2023-05-09T07:01:37;94972.09;;;15.80;67.21
11971;BME280;6045;42.682;23.294;2023-05-09T07:04:04;94978.13;;;15.92;67.62
11971;BME280;6045;42.682;23.294;2023-05-09T07:06:31;94980.44;;;16.05;67.99
11971;BME280;6045;42.682;23.294;2023-05-09T07:08:57;94980.72;;;16.09;65.90
11971;BME280;6045;42.682;23.294;2023-05-09T07:11:25;94976.03;;;15.99;66.20
11971;BME280;6045;42.682;23.294;2023-05-09T07:13:52;94976.09;;;16.04;66.16
11971;BME280;6045;42.682;23.294;2023-05-09T07:16:19;94975.44;;;16.19;65.36
11971;BME280;6045;42.682;23.294;2023-05-09T07:18:47;94976.63;;;16.33;65.38
11971;BME280;6045;42.682;23.294;2023-05-09T07:21:14;94980.84;;;16.51;65.17
11971;BME280;6045;42.682;23.294;2023-05-09T07:23:40;94987.44;;;16.60;65.43
11971;BME280;6045;42.682;23.294;2023-05-09T07:26:07;94980.38;;;16.59;63.65
11971;BME280;6045;42.682;23.294;2023-05-09T07:28:35;94982.41;;;16.47;63.71
11971;BME280;6045;42.682;23.294;2023-05-09T07:31:02;94982.75;;;16.23;64.37
11971;BME280;6045;42.682;23.294;2023-05-09T07:33:30;94976.31;;;16.24;65.47
11971;BME280;6045;42.682;23.294;2023-05-09T07:35:57;94983.56;;;16.24;65.77
11971;BME280;6045;42.682;23.294;2023-05-09T07:38:24;94980.22;;;16.12;65.91
11971;BME280;6045;42.682;23.294;2023-05-09T07:40:50;94984.22;;;16.09;65.40
11971;BME280;6045;42.682;23.294;2023-05-09T07:43:18;94983.78;;;16.17;65.31
11971;BME280;6045;42.682;23.294;2023-05-09T07:45:46;94988.25;;;16.33;64.98
11971;BME280;6045;42.682;23.294;2023-05-09T07:48:13;94985.34;;;16.13;64.05
11971;BME280;6045;42.682;23.294;2023-05-09T07:50:40;94984.88;;;15.95;64.27
11971;BME280;6045;42.682;23.294;2023-05-09T07:53:07;94983.47;;;15.87;64.98
11971;BME280;6045;42.682;23.294;2023-05-09T07:55:34;94982.84;;;16.07;65.03
11971;BME280;6045;42.682;23.294;2023-05-09T07:58:01;94987.81;;;16.15;64.71
11971;BME280;6045;42.682;23.294;2023-05-09T08:00:27;94975.16;;;16.20;64.83
11971;BME280;6045;42.682;23.294;2023-05-09T08:02:55;94979.75;;;16.20;65.38
11971;BME280;6045;42.682;23.294;2023-05-09T08:05:22;94973.75;;;16.44;64.98
11971;BME280;6045;42.682;23.294;2023-05-09T08:07:49;94973.25;;;16.74;64.94
11971;BME280;6045;42.682;23.294;2023-05-09T08:12:42;94973.91;;;16.96;63.48
11971;BME280;6045;42.682;23.294;2023-05-09T08:15:10;94984.81;;;17.12;61.50
11971;BME280;6045;42.682;23.294;2023-05-09T08:17:37;94991.91;;;17.23;61.37
11971;BME280;6045;42.682;23.294;2023-05-09T08:20:06;94980.28;;;17.22;61.04
11971;BME280;6045;42.682;23.294;2023-05-09T08:22:34;94978.66;;;17.21;62.14
11971;BME280;6045;42.682;23.294;2023-05-09T08:25:01;94981.34;;;17.16;62.14
11971;BME280;6045;42.682;23.294;2023-05-09T08:27:28;94992.22;;;17.26;60.81
11971;BME280;6045;42.682;23.294;2023-05-09T08:29:54;94979.84;;;17.45;61.88
11971;BME280;6045;42.682;23.294;2023-05-09T08:32:21;94985.41;;;17.65;60.06
11971;BME280;6045;42.682;23.294;2023-05-09T08:34:48;94978.44;;;17.85;58.75
11971;BME280;6045;42.682;23.294;2023-05-09T08:37:16;94973.59;;;18.07;59.83
11971;BME280;6045;42.682;23.294;2023-05-09T08:39:43;94977.50;;;18.71;57.57
11971;BME280;6045;42.682;23.294;2023-05-09T08:42:09;94974.22;;;18.99;58.16
11971;BME280;6045;42.682;23.294;2023-05-09T08:44:36;94968.75;;;19.25;58.20
11971;BME280;6045;42.682;23.294;2023-05-09T08:47:03;94969.81;;;19.34;55.95
11971;BME280;6045;42.682;23.294;2023-05-09T08:49:30;94969.34;;;18.96;54.15
11971;BME280;6045;42.682;23.294;2023-05-09T08:51:57;94984.00;;;18.50;54.68
11971;BME280;6045;42.682;23.294;2023-05-09T08:54:26;94970.91;;;18.07;57.12
11971;BME280;6045;42.682;23.294;2023-05-09T08:56:54;94975.44;;;17.86;58.95
11971;BME280;6045;42.682;23.294;2023-05-09T08:59:22;94965.28;;;17.46;60.58
11971;BME280;6045;42.682;23.294;2023-05-09T09:01:50;94973.28;;;17.31;61.84
11971;BME280;6045;42.682;23.294;2023-05-09T09:04:17;94965.00;;;16.96;61.48
11971;BME280;6045;42.682;23.294;2023-05-09T09:06:44;94967.53;;;16.71;62.64
11971;BME280;6045;42.682;23.294;2023-05-09T09:09:12;94965.72;;;16.50;63.28
11971;BME280;6045;42.682;23.294;2023-05-09T09:11:42;94969.91;;;16.35;64.83
11971;BME280;6045;42.682;23.294;2023-05-09T09:14:11;94970.25;;;16.12;63.37
11971;BME280;6045;42.682;23.294;2023-05-09T09:16:40;94969.75;;;16.15;64.30
11971;BME280;6045;42.682;23.294;2023-05-09T09:19:10;94966.88;;;16.00;63.47
11971;BME280;6045;42.682;23.294;2023-05-09T09:21:39;94971.66;;;15.93;63.99
11971;BME280;6045;42.682;23.294;2023-05-09T09:24:07;94967.22;;;16.04;64.45
11971;BME280;6045;42.682;23.294;2023-05-09T09:26:46;94972.84;;;16.02;64.61
11971;BME280;6045;42.682;23.294;2023-05-09T09:29:13;94967.03;;;15.89;64.97
11971;BME280;6045;42.682;23.294;2023-05-09T09:31:43;94969.34;;;15.75;65.40
11971;BME280;6045;42.682;23.294;2023-05-09T09:34:11;94966.06;;;15.73;65.66
11971;BME280;6045;42.682;23.294;2023-05-09T09:36:38;94976.03;;;15.99;73.40
11971;BME280;6045;42.682;23.294;2023-05-09T09:39:05;94977.91;;;16.52;69.48
11971;BME280;6045;42.682;23.294;2023-05-09T09:41:32;94971.06;;;16.44;64.62
11971;BME280;6045;42.682;23.294;2023-05-09T09:44:06;94964.97;;;16.54;64.04
11971;BME280;6045;42.682;23.294;2023-05-09T09:46:40;94973.75;;;16.44;63.65
11971;BME280;6045;42.682;23.294;2023-05-09T09:49:08;94976.31;;;16.56;63.48
11971;BME280;6045;42.682;23.294;2023-05-09T09:51:35;94975.09;;;16.42;64.36
11971;BME280;6045;42.682;23.294;2023-05-09T09:54:02;94984.50;;;16.34;64.91
11971;BME280;6045;42.682;23.294;2023-05-09T09:56:37;94979.00;;;16.24;65.24
11971;BME280;6045;42.682;23.294;2023-05-09T09:59:11;94971.97;;;16.23;65.28
11971;BME280;6045;42.682;23.294;2023-05-09T10:01:54;94972.66;;;16.40;65.92
11971;BME280;6045;42.682;23.294;2023-05-09T10:04:21;94980.50;;;16.42;65.45
11971;BME280;6045;42.682;23.294;2023-05-09T10:06:52;94972.94;;;16.44;65.53
11971;BME280;6045;42.682;23.294;2023-05-09T10:09:21;94964.19;;;16.59;64.53
11971;BME280;6045;42.682;23.294;2023-05-09T10:11:49;94968.31;;;16.39;65.18
11971;BME280;6045;42.682;23.294;2023-05-09T10:14:18;94967.50;;;16.07;65.41
11971;BME280;6045;42.682;23.294;2023-05-09T10:16:47;94967.81;;;16.11;65.78
11971;BME280;6045;42.682;23.294;2023-05-09T10:19:17;94966.50;;;16.18;64.27
11971;BME280;6045;42.682;23.294;2023-05-09T10:21:48;94964.91;;;16.17;64.94
11971;BME280;6045;42.682;23.294;2023-05-09T10:24:17;94962.59;;;16.04;65.54
11971;BME280;6045;42.682;23.294;2023-05-09T10:26:48;94965.84;;;16.06;66.57
11971;BME280;6045;42.682;23.294;2023-05-09T10:29:17;94964.34;;;16.15;66.94
11971;BME280;6045;42.682;23.294;2023-05-09T10:31:49;94957.06;;;15.62;67.95
11971;BME280;6045;42.682;23.294;2023-05-09T10:34:20;94960.91;;;15.71;68.54
11971;BME280;6045;42.682;23.294;2023-05-09T10:36:48;94953.03;;;15.65;68.25
11971;BME280;6045;42.682;23.294;2023-05-09T10:39:15;94951.13;;;15.87;67.97
11971;BME280;6045;42.682;23.294;2023-05-09T10:41:43;94951.69;;;15.89;66.86
11971;BME280;6045;42.682;23.294;2023-05-09T10:44:10;94959.31;;;15.97;67.04
11971;BME280;6045;42.682;23.294;2023-05-09T10:46:38;94949.00;;;15.89;66.47
11971;BME280;6045;42.682;23.294;2023-05-09T10:49:06;94954.88;;;15.86;67.94
11971;BME280;6045;42.682;23.294;2023-05-09T10:51:33;94950.97;;;15.99;67.56
11971;BME280;6045;42.682;23.294;2023-05-09T10:54:13;94958.19;;;16.20;66.81
11971;BME280;6045;42.682;23.294;2023-05-09T10:56:40;94954.69;;;16.51;66.71
11971;BME280;6045;42.682;23.294;2023-05-09T10:59:31;94947.78;;;16.65;64.31
11971;BME280;6045;42.682;23.294;2023-05-09T11:01:59;94958.66;;;16.75;64.15
11971;BME280;6045;42.682;23.294;2023-05-09T11:04:28;94953.69;;;16.99;63.43
11971;BME280;6045;42.682;23.294;2023-05-09T11:06:55;94956.47;;;17.66;62.20
11971;BME280;6045;42.682;23.294;2023-05-09T11:09:23;94950.09;;;18.17;60.48
11971;BME280;6045;42.682;23.294;2023-05-09T11:11:52;94949.84;;;18.39;59.13
11971;BME280;6045;42.682;23.294;2023-05-09T11:14:29;94953.06;;;18.26;58.23
11971;BME280;6045;42.682;23.294;2023-05-09T11:16:56;94952.50;;;17.94;59.13
11971;BME280;6045;42.682;23.294;2023-05-09T11:19:35;94949.81;;;18.19;58.93
11971;BME280;6045;42.682;23.294;2023-05-09T11:22:11;94948.75;;;18.40;58.98
11971;BME280;6045;42.682;23.294;2023-05-09T11:24:38;94963.66;;;18.22;58.21
11971;BME280;6045;42.682;23.294;2023-05-09T11:27:13;94954.13;;;18.00;58.27
11971;BME280;6045;42.682;23.294;2023-05-09T11:29:45;94958.66;;;17.74;59.49
11971;BME280;6045;42.682;23.294;2023-05-09T11:32:13;94953.53;;;17.88;60.10
11971;BME280;6045;42.682;23.294;2023-05-09T11:34:43;94956.81;;;17.95;59.43
11971;BME280;6045;42.682;23.294;2023-05-09T11:37:11;94952.97;;;17.81;60.18
11971;BME280;6045;42.682;23.294;2023-05-09T11:40:02;94959.47;;;17.74;60.14
11971;BME280;6045;42.682;23.294;2023-05-09T11:42:30;94957.06;;;17.21;60.75
11971;BME280;6045;42.682;23.294;2023-05-09T11:44:58;94957.47;;;17.03;61.19
11971;BME280;6045;42.682;23.294;2023-05-09T11:47:25;94953.44;;;17.05;63.28
11971;BME280;6045;42.682;23.294;2023-05-09T11:49:54;94955.50;;;17.35;63.66
11971;BME280;6045;42.682;23.294;2023-05-09T11:52:21;94956.84;;;17.33;61.22
11971;BME280;6045;42.682;23.294;2023-05-09T11:54:48;94955.91;;;17.07;62.63
11971;BME280;6045;42.682;23.294;2023-05-09T11:57:15;94938.97;;;16.80;62.96
11971;BME280;6045;42.682;23.294;2023-05-09T11:59:42;94946.38;;;16.94;64.43
11971;BME280;6045;42.682;23.294;2023-05-09T12:02:10;94942.44;;;17.12;63.38
11971;BME280;6045;42.682;23.294;2023-05-09T12:04:37;94949.91;;;17.00;62.38
11971;BME280;6045;42.682;23.294;2023-05-09T12:07:05;94948.41;;;16.77;63.67
11971;BME280;6045;42.682;23.294;2023-05-09T12:09:34;94951.59;;;16.37;64.42
11971;BME280;6045;42.682;23.294;2023-05-09T12:12:08;94949.38;;;16.03;65.83
11971;BME280;6045;42.682;23.294;2023-05-09T12:14:35;94955.91;;;15.80;65.46
11971;BME280;6045;42.682;23.294;2023-05-09T12:17:03;94951.09;;;15.60;66.68
11971;BME280;6045;42.682;23.294;2023-05-09T12:19:30;94948.28;;;15.50;67.34
11971;BME280;6045;42.682;23.294;2023-05-09T12:22:00;94951.09;;;15.39;67.79
11971;BME280;6045;42.682;23.294;2023-05-09T12:24:29;94948.59;;;15.32;68.92
11971;BME280;6045;42.682;23.294;2023-05-09T12:26:57;94946.47;;;15.56;70.25
11971;BME280;6045;42.682;23.294;2023-05-09T12:29:25;94949.16;;;15.56;69.57
11971;BME280;6045;42.682;23.294;2023-05-09T12:31:52;94931.38;;;15.55;69.25
11971;BME280;6045;42.682;23.294;2023-05-09T12:34:19;94959.59;;;15.74;69.33
11971;BME280;6045;42.682;23.294;2023-05-09T12:36:46;94940.97;;;15.46;67.25
11971;BME280;6045;42.682;23.294;2023-05-09T12:39:15;94959.78;;;15.24;68.04
11971;BME280;6045;42.682;23.294;2023-05-09T12:41:44;94937.81;;;15.11;68.28
11971;BME280;6045;42.682;23.294;2023-05-09T12:44:18;94954.25;;;14.92;69.55
11971;BME280;6045;42.682;23.294;2023-05-09T12:46:53;94943.97;;;14.89;71.04
11971;BME280;6045;42.682;23.294;2023-05-09T12:49:20;94940.13;;;15.02;71.50
11971;BME280;6045;42.682;23.294;2023-05-09T12:51:47;94945.38;;;15.14;70.90
11971;BME280;6045;42.682;23.294;2023-05-09T12:54:19;94934.47;;;15.03;71.65
11971;BME280;6045;42.682;23.294;2023-05-09T12:56:47;94931.84;;;15.08;71.93
11971;BME280;6045;42.682;23.294;2023-05-09T12:59:21;94924.91;;;15.34;71.20
11971;BME280;6045;42.682;23.294;2023-05-09T13:01:54;94932.09;;;15.29;69.56
11971;BME280;6045;42.682;23.294;2023-05-09T13:04:22;94931.31;;;15.06;70.21
11971;BME280;6045;42.682;23.294;2023-05-09T13:06:50;94936.81;;;15.17;70.65
11971;BME280;6045;42.682;23.294;2023-05-09T13:09:18;94924.72;;;14.97;70.13